createdAt,value
2019-04-19T00:00:12.801Z,96.08
2019-04-19T00:01:11.317Z,95.89
2019-04-19T00:02:12.195Z,96.27
2019-04-19T00:03:12.277Z,95.98
2019-04-19T00:04:12.094Z,95.02
2019-04-19T00:05:09.387Z,95.21
2019-04-19T00:06:15.988Z,94.64
2019-04-19T00:07:14.414Z,94.34
2019-04-19T00:08:20.146Z,94.92
2019-04-19T00:09:23.898Z,94.78
2019-04-19T00:10:21.582Z,94.59
2019-04-19T00:11:18.898Z,95.26
2019-04-19T00:12:21.898Z,95.12
2019-04-19T00:13:08.270Z,94.73
2019-04-19T00:14:08.535Z,94.25
2019-04-19T00:15:07.598Z,94.64
2019-04-19T00:16:08.751Z,94.30
2019-04-19T00:17:16.882Z,94.40
2019-04-19T00:18:10.983Z,94.40
2019-04-19T00:19:42.653Z,94.10
2019-04-19T00:20:31.426Z,94.10
2019-04-19T00:21:24.095Z,94.59
2019-04-19T00:22:41.264Z,95.36
2019-04-19T00:23:15.412Z,94.59
2019-04-19T00:24:07.973Z,95.17
2019-04-19T00:25:08.151Z,95.17
2019-04-19T00:26:07.092Z,95.45
2019-04-19T00:27:07.752Z,95.55
2019-04-19T00:28:07.089Z,95.45
2019-04-19T00:29:16.713Z,95.55
2019-04-19T00:30:19.265Z,95.26
2019-04-19T00:31:22.604Z,95.55
2019-04-19T00:32:20.795Z,95.45
2019-04-19T00:33:20.553Z,95.74
2019-04-19T00:34:06.699Z,95.94
2019-04-19T00:35:07.477Z,95.94
2019-04-19T00:36:07.675Z,96.12
2019-04-19T00:37:07.738Z,96.22
2019-04-19T00:38:11.155Z,96.03
2019-04-19T00:39:24.543Z,96.03
2019-04-19T00:40:21.557Z,95.74
2019-04-19T00:41:26.902Z,95.45
2019-04-19T00:42:25.449Z,95.84
2019-04-19T00:43:25.232Z,96.03
2019-04-19T00:44:28.345Z,95.36
2019-04-19T00:45:23.755Z,95.45
2019-04-19T00:46:24.842Z,95.36
2019-04-19T00:47:25.939Z,95.55
2019-04-19T00:48:24.301Z,95.55
2019-04-19T00:49:16.069Z,95.36
2019-04-19T00:50:18.281Z,95.45
2019-04-19T00:51:18.721Z,95.07
2019-04-19T00:52:28.872Z,95.26
2019-04-19T00:53:21.698Z,95.45
2019-04-19T00:54:15.971Z,95.45
2019-04-19T00:55:14.702Z,95.36
2019-04-19T00:56:13.505Z,94.78
2019-04-19T00:57:14.691Z,94.97
2019-04-19T00:58:12.503Z,95.55
2019-04-19T00:59:09.705Z,96.03
2019-04-19T01:00:06.488Z,95.74
2019-04-19T01:01:12.154Z,95.74
2019-04-19T01:02:10.576Z,95.94
2019-04-19T01:03:06.264Z,95.36
2019-04-19T01:04:13.497Z,95.36
2019-04-19T01:05:11.388Z,95.45
2019-04-19T01:06:08.933Z,95.17
2019-04-19T01:07:06.934Z,95.26
2019-04-19T01:08:10.268Z,95.17
2019-04-19T01:09:19.165Z,95.17
2019-04-19T01:10:19.596Z,95.26
2019-04-19T01:11:20.117Z,95.26
2019-04-19T01:12:19.566Z,95.26
2019-04-19T01:13:15.602Z,94.68
2019-04-19T01:14:18.397Z,94.49
2019-04-19T01:15:16.521Z,94.59
2019-04-19T01:16:18.088Z,94.68
2019-04-19T01:17:17.549Z,95.17
2019-04-19T01:18:22.427Z,94.59
2019-04-19T01:19:09.091Z,94.49
2019-04-19T01:20:07.455Z,95.17
2019-04-19T01:21:05.055Z,94.59
2019-04-19T01:22:11.864Z,94.78
2019-04-19T01:23:10.114Z,95.17
2019-04-19T01:24:05.266Z,95.17
2019-04-19T01:25:10.445Z,94.97
2019-04-19T01:26:08.660Z,94.68
2019-04-19T01:27:04.433Z,94.78
2019-04-19T01:28:11.375Z,95.36
2019-04-19T01:29:09.018Z,95.17
2019-04-19T01:30:04.606Z,95.74
2019-04-19T01:31:10.064Z,95.94
2019-04-19T01:32:08.713Z,95.45
2019-04-19T01:33:05.455Z,95.45
2019-04-19T01:34:14.691Z,94.87
2019-04-19T01:35:07.139Z,94.78
2019-04-19T01:36:04.262Z,94.30
2019-04-19T01:37:11.335Z,93.91
2019-04-19T01:38:08.095Z,93.82
2019-04-19T01:39:17.991Z,93.43
2019-04-19T01:40:18.137Z,93.43
2019-04-19T01:41:20.490Z,93.43
2019-04-19T01:42:20.892Z,93.00
2019-04-19T01:43:23.717Z,93.19
2019-04-19T01:44:25.207Z,93.00
2019-04-19T01:45:17.302Z,92.61
2019-04-19T01:46:15.885Z,92.52
2019-04-19T01:47:23.927Z,92.52
2019-04-19T01:48:27.024Z,92.42
2019-04-19T01:49:12.845Z,92.80
2019-04-19T01:50:12.347Z,92.90
2019-04-19T01:51:15.849Z,92.47
2019-04-19T01:52:33.461Z,92.95
2019-04-19T01:53:20.722Z,92.57
2019-04-19T01:54:18.839Z,93.05
2019-04-19T01:55:12.249Z,93.33
2019-04-19T01:56:06.331Z,93.91
2019-04-19T01:57:06.321Z,93.05
2019-04-19T01:58:09.460Z,93.43
2019-04-19T01:59:03.678Z,93.82
2019-04-19T02:00:05.082Z,93.62
2019-04-19T02:01:06.972Z,93.91
2019-04-19T02:02:07.321Z,93.82
2019-04-19T02:03:04.563Z,93.24
2019-04-19T02:04:06.351Z,93.53
2019-04-19T02:05:06.903Z,94.01
2019-04-19T02:06:06.807Z,93.62
2019-04-19T02:07:06.005Z,93.82
2019-04-19T02:08:07.134Z,93.53
2019-04-19T02:09:03.456Z,93.43
2019-04-19T02:10:14.700Z,93.33
2019-04-19T02:11:10.019Z,93.82
2019-04-19T02:12:24.811Z,93.62
2019-04-19T02:13:13.947Z,93.91
2019-04-19T02:14:10.174Z,93.62
2019-04-19T02:15:07.835Z,93.33
2019-04-19T02:16:08.244Z,93.24
2019-04-19T02:17:06.365Z,93.67
2019-04-19T02:18:03.058Z,93.62
2019-04-19T02:19:06.518Z,93.43
2019-04-19T02:20:05.879Z,93.82
2019-04-19T02:21:02.311Z,93.53
2019-04-19T02:22:07.439Z,93.82
2019-04-19T02:23:07.403Z,94.01
2019-04-19T02:24:03.578Z,94.49
2019-04-19T02:25:02.588Z,94.40
2019-04-19T02:26:08.944Z,94.49
2019-04-19T02:27:06.485Z,94.20
2019-04-19T02:28:02.570Z,94.78
2019-04-19T02:29:07.483Z,94.68
2019-04-19T02:30:09.552Z,94.78
2019-04-19T02:31:23.730Z,94.97
2019-04-19T02:33:29.380Z,95.17
2019-04-19T02:34:44.213Z,94.97
2019-04-19T02:35:24.197Z,95.17
2019-04-19T02:36:35.732Z,95.45
2019-04-19T02:37:39.890Z,95.36
2019-04-19T02:38:29.658Z,95.94
2019-04-19T02:39:29.400Z,95.74
2019-04-19T02:40:47.227Z,95.65
2019-04-19T02:41:43.586Z,95.45
2019-04-19T02:42:32.718Z,95.65
2019-04-19T02:43:43.261Z,95.17
2019-04-19T02:44:31.242Z,95.26
2019-04-19T02:45:22.519Z,95.26
2019-04-19T02:46:33.240Z,94.97
2019-04-19T02:47:38.929Z,95.55
2019-04-19T02:48:26.344Z,94.97
2019-04-19T02:49:37.814Z,95.55
2019-04-19T02:52:33.259Z,95.26
2019-04-19T02:53:29.607Z,94.59
2019-04-19T02:54:25.549Z,94.78
2019-04-19T02:55:23.147Z,94.40
2019-04-19T02:56:42.656Z,94.68
2019-04-19T02:58:30.289Z,94.78
2019-04-19T02:59:38.668Z,94.49
2019-04-19T03:00:30.872Z,94.59
2019-04-19T03:01:26.773Z,94.59
2019-04-19T03:02:32.112Z,94.97
2019-04-19T03:03:30.942Z,95.45
2019-04-19T03:06:14.834Z,95.65
2019-04-19T03:07:03.121Z,95.74
2019-04-19T03:07:59.777Z,96.32
2019-04-19T03:08:59.482Z,95.74
2019-04-19T03:10:00.021Z,96.42
2019-04-19T03:11:10.736Z,96.03
2019-04-19T03:12:16.681Z,96.27
2019-04-19T03:13:13.836Z,96.70
2019-04-19T03:14:14.234Z,96.89
2019-04-19T03:15:15.238Z,96.17
2019-04-19T03:16:17.087Z,96.99
2019-04-19T03:17:20.533Z,96.17
2019-04-19T03:18:26.013Z,95.94
2019-04-19T03:19:09.471Z,96.37
2019-04-19T03:20:18.049Z,96.27
2019-04-19T03:21:17.026Z,96.75
2019-04-19T03:22:16.404Z,96.75
2019-04-19T03:23:14.904Z,96.42
2019-04-19T03:24:14.307Z,96.85
2019-04-19T03:25:15.212Z,96.61
2019-04-19T03:26:15.329Z,96.17
2019-04-19T03:27:06.673Z,96.22
2019-04-19T03:28:11.028Z,96.22
2019-04-19T03:29:08.248Z,96.37
2019-04-19T03:30:14.516Z,95.70
2019-04-19T03:31:23.621Z,96.17
2019-04-19T03:34:18.602Z,97.24
2019-04-19T03:35:19.239Z,97.14
2019-04-19T03:36:16.635Z,97.62
2019-04-19T03:37:16.211Z,97.81
2019-04-19T03:38:17.495Z,98.00
2019-04-19T03:39:18.168Z,98.29
2019-04-19T03:40:23.362Z,98.00
2019-04-19T03:41:18.530Z,98.49
2019-04-19T03:42:21.226Z,98.58
2019-04-19T03:43:23.250Z,98.29
2019-04-19T03:44:18.454Z,99.01
2019-04-19T03:45:14.076Z,99.16
2019-04-19T03:46:15.969Z,98.82
2019-04-19T03:47:15.056Z,98.63
2019-04-19T03:48:25.514Z,99.01
2019-04-19T03:49:24.669Z,98.19
2019-04-19T03:50:15.473Z,98.77
2019-04-19T03:51:13.590Z,98.63
2019-04-19T03:53:15.400Z,98.72
2019-04-19T03:54:21.770Z,98.82
2019-04-19T03:55:14.373Z,98.91
2019-04-19T03:56:16.456Z,99.30
2019-04-19T03:57:11.348Z,99.78
2019-04-19T03:58:03.268Z,99.88
2019-04-19T03:58:57.689Z,99.68
2019-04-19T03:59:58.267Z,99.40
2019-04-19T04:00:58.074Z,99.99
2019-04-19T04:02:00.631Z,99.59
2019-04-19T04:03:01.064Z,99.99
2019-04-19T04:04:06.502Z,99.99
2019-04-19T04:05:02.632Z,99.98
2019-04-19T04:05:58.238Z,99.99
2019-04-19T04:07:01.089Z,99.99
2019-04-19T04:08:06.093Z,99.99
2019-04-19T04:09:02.678Z,99.99
2019-04-19T04:09:59.280Z,99.99
2019-04-19T04:11:00.216Z,99.99
2019-04-19T04:12:14.653Z,99.78
2019-04-19T04:13:13.303Z,99.78
2019-04-19T04:14:13.820Z,99.99
2019-04-19T04:15:08.231Z,99.73
2019-04-19T04:16:07.649Z,99.64
2019-04-19T04:16:56.990Z,98.77
2019-04-19T04:17:56.423Z,98.77
2019-04-19T04:18:57.502Z,99.26
2019-04-19T04:19:56.748Z,98.87
2019-04-19T04:20:59.036Z,98.68
2019-04-19T04:21:57.420Z,98.68
2019-04-19T04:23:03.663Z,98.82
2019-04-19T04:24:06.224Z,98.72
2019-04-19T04:25:04.194Z,99.30
2019-04-19T04:26:02.817Z,99.49
2019-04-19T04:27:06.049Z,99.11
2019-04-19T04:28:03.813Z,99.59
2019-04-19T04:29:06.819Z,99.30
2019-04-19T04:30:08.153Z,99.78
2019-04-19T04:31:05.847Z,99.88
2019-04-19T04:32:05.272Z,99.78
2019-04-19T04:33:05.423Z,99.98
2019-04-19T04:34:06.083Z,99.99
2019-04-19T04:35:13.574Z,99.99
2019-04-19T04:36:18.236Z,99.99
2019-04-19T04:37:12.598Z,99.99
2019-04-19T04:38:05.844Z,99.99
2019-04-19T04:38:56.491Z,99.99
2019-04-19T04:39:55.591Z,99.99
2019-04-19T04:40:55.173Z,99.99
2019-04-19T04:42:08.990Z,99.99
2019-04-19T04:43:09.434Z,99.99
2019-04-19T04:44:13.416Z,99.99
2019-04-19T04:45:18.500Z,99.99
2019-04-19T04:46:21.641Z,99.99
2019-04-19T04:47:16.576Z,99.99
2019-04-19T04:48:07.751Z,99.99
2019-04-19T04:49:25.637Z,99.99
2019-04-19T04:50:16.895Z,99.99
2019-04-19T04:51:15.715Z,99.99
2019-04-19T04:52:04.543Z,99.99
2019-04-19T04:52:55.940Z,99.99
2019-04-19T04:53:55.314Z,99.99
2019-04-19T04:54:54.560Z,99.99
2019-04-19T04:55:58.165Z,99.99
2019-04-19T04:57:05.252Z,99.99
2019-04-19T04:57:59.040Z,99.99
2019-04-19T04:58:58.316Z,99.99
2019-04-19T04:59:57.455Z,99.99
2019-04-19T05:01:01.763Z,99.99
2019-04-19T05:02:01.438Z,99.99
2019-04-19T05:03:10.500Z,99.99
2019-04-19T05:04:10.492Z,99.99
2019-04-19T05:05:10.067Z,99.99
2019-04-19T05:06:11.224Z,99.99
2019-04-19T05:07:11.335Z,99.99
2019-04-19T05:08:16.596Z,99.99
2019-04-19T05:09:10.754Z,99.99
2019-04-19T05:10:09.333Z,99.99
2019-04-19T05:11:13.944Z,99.99
2019-04-19T05:12:36.524Z,99.99
2019-04-19T05:14:11.289Z,99.99
2019-04-19T05:15:14.886Z,99.99
2019-04-19T05:16:25.201Z,99.99
2019-04-19T05:17:26.289Z,99.99
2019-04-19T05:18:18.913Z,99.99
2019-04-19T05:19:10.817Z,99.99
2019-04-19T05:20:14.529Z,99.99
2019-04-19T05:21:16.105Z,99.99
2019-04-19T05:22:11.706Z,99.99
2019-04-19T05:23:08.228Z,99.99
2019-04-19T05:24:18.957Z,99.99
2019-04-19T05:25:19.352Z,99.99
2019-04-19T05:26:25.527Z,99.99
2019-04-19T05:27:14.831Z,99.99
2019-04-19T05:28:13.265Z,99.99
2019-04-19T05:29:07.310Z,99.99
2019-04-19T05:29:56.210Z,99.99
2019-04-19T05:30:58.690Z,99.99
2019-04-19T05:32:03.737Z,99.99
2019-04-19T05:33:04.765Z,99.99
2019-04-19T05:34:14.968Z,99.99
2019-04-19T05:35:08.409Z,99.99
2019-04-19T05:36:13.784Z,99.99
2019-04-19T05:37:10.847Z,99.99
2019-04-19T05:38:08.470Z,99.99
2019-04-19T05:39:21.889Z,99.99
2019-04-19T05:40:12.186Z,99.99
2019-04-19T05:41:02.803Z,99.99
2019-04-19T05:42:05.832Z,99.99
2019-04-19T05:43:10.166Z,99.99
2019-04-19T05:44:19.817Z,99.99
2019-04-19T05:45:31.532Z,99.99
2019-04-19T05:46:17.791Z,99.99
2019-04-19T05:47:10.274Z,99.99
2019-04-19T05:48:00.594Z,99.99
2019-04-19T05:49:07.972Z,99.99
2019-04-19T05:50:16.988Z,99.99
2019-04-19T05:52:14.120Z,99.99
2019-04-19T05:53:08.067Z,99.99
2019-04-19T05:53:55.116Z,99.99
2019-04-19T05:54:51.711Z,99.99
2019-04-19T05:55:52.176Z,99.99
2019-04-19T05:56:56.059Z,99.99
2019-04-19T05:58:05.613Z,99.99
2019-04-19T05:58:59.948Z,99.99
2019-04-19T05:59:59.516Z,99.99
2019-04-19T06:01:08.052Z,99.99
2019-04-19T06:02:05.512Z,99.99
2019-04-19T06:03:04.279Z,99.99
2019-04-19T06:04:11.876Z,99.99
2019-04-19T06:05:14.971Z,99.99
2019-04-19T06:06:15.570Z,99.99
2019-04-19T06:07:08.338Z,99.99
2019-04-19T06:08:04.160Z,99.99
2019-04-19T06:08:51.923Z,99.99
2019-04-19T06:09:51.898Z,99.99
2019-04-19T06:10:54.891Z,99.99
2019-04-19T06:11:51.417Z,99.99
2019-04-19T06:13:00.443Z,99.99
2019-04-19T06:14:12.651Z,99.99
2019-04-19T06:15:13.474Z,99.99
2019-04-19T06:16:12.878Z,99.99
2019-04-19T06:17:01.521Z,99.99
2019-04-19T06:18:06.725Z,99.99
2019-04-19T06:19:12.767Z,99.99
2019-04-19T06:20:11.383Z,99.99
2019-04-19T06:21:17.159Z,99.99
2019-04-19T06:22:04.653Z,99.99
2019-04-19T06:23:07.153Z,99.99
2019-04-19T06:24:13.600Z,99.99
2019-04-19T06:25:06.457Z,99.99
2019-04-19T06:26:45.439Z,99.99
2019-04-19T06:28:18.654Z,99.99
2019-04-19T06:29:11.973Z,99.99
2019-04-19T06:30:16.136Z,99.99
2019-04-19T06:31:14.386Z,99.99
2019-04-19T06:32:11.533Z,99.99
2019-04-19T06:33:12.010Z,99.99
2019-04-19T06:34:10.998Z,99.99
2019-04-19T06:35:05.701Z,99.99
2019-04-19T06:35:55.431Z,99.99
2019-04-19T06:37:02.876Z,99.99
2019-04-19T06:37:50.297Z,99.99
2019-04-19T06:38:50.722Z,99.99
2019-04-19T06:39:53.616Z,99.99
2019-04-19T06:40:57.893Z,99.99
2019-04-19T06:41:55.869Z,99.99
2019-04-19T06:42:58.162Z,99.99
2019-04-19T06:44:01.679Z,99.99
2019-04-19T06:45:09.440Z,99.99
2019-04-19T06:46:08.298Z,99.99
2019-04-19T06:47:00.843Z,99.99
2019-04-19T06:47:56.986Z,99.99
2019-04-19T06:48:57.700Z,99.99
2019-04-19T06:49:52.475Z,99.99
2019-04-19T06:50:53.949Z,99.99
2019-04-19T06:51:57.485Z,99.99
2019-04-19T06:52:49.048Z,99.99
2019-04-19T06:53:55.551Z,99.99
2019-04-19T06:54:49.756Z,99.99
2019-04-19T06:55:53.016Z,99.99
2019-04-19T06:57:00.794Z,99.99
2019-04-19T06:58:00.150Z,99.99
2019-04-19T06:58:59.745Z,99.99
2019-04-19T07:00:02.962Z,99.99
2019-04-19T07:01:00.715Z,99.99
2019-04-19T07:01:52.743Z,99.99
2019-04-19T07:02:49.669Z,99.99
2019-04-19T07:03:49.396Z,99.99
2019-04-19T07:05:03.505Z,99.99
2019-04-19T07:06:06.320Z,99.99
2019-04-19T07:07:09.356Z,99.99
2019-04-19T07:08:17.710Z,99.99
2019-04-19T07:09:13.695Z,99.99
2019-04-19T07:10:20.276Z,99.99
2019-04-19T07:11:11.269Z,99.99
2019-04-19T07:12:06.930Z,99.99
2019-04-19T07:13:04.482Z,99.99
2019-04-19T07:13:56.536Z,99.99
2019-04-19T07:15:12.417Z,99.99
2019-04-19T07:16:15.874Z,99.99
2019-04-19T07:17:09.567Z,99.99
2019-04-19T07:18:05.230Z,99.99
2019-04-19T07:19:07.900Z,99.99
2019-04-19T07:20:06.073Z,99.99
2019-04-19T07:21:06.178Z,99.99
2019-04-19T07:22:05.092Z,99.99
2019-04-19T07:23:03.315Z,99.99
2019-04-19T07:24:09.975Z,99.99
2019-04-19T07:25:15.303Z,99.99
2019-04-19T07:26:13.854Z,99.99
2019-04-19T07:27:08.174Z,99.99
2019-04-19T07:27:55.622Z,99.99
2019-04-19T07:28:47.475Z,99.99
2019-04-19T07:29:49.031Z,99.99
2019-04-19T07:30:49.193Z,99.99
2019-04-19T07:31:47.097Z,99.99
2019-04-19T07:32:56.618Z,99.99
2019-04-19T07:33:57.202Z,99.99
2019-04-19T07:35:03.346Z,99.99
2019-04-19T07:36:07.961Z,99.99
2019-04-19T07:37:03.799Z,99.99
2019-04-19T07:38:12.490Z,99.99
2019-04-19T07:39:21.582Z,99.99
2019-04-19T07:40:11.451Z,99.99
2019-04-19T07:41:05.908Z,99.99
2019-04-19T07:42:15.642Z,99.99
2019-04-19T07:43:00.331Z,99.99
2019-04-19T07:43:59.231Z,99.99
2019-04-19T07:44:52.955Z,99.99
2019-04-19T07:46:08.457Z,99.99
2019-04-19T07:47:02.861Z,99.99
2019-04-19T07:47:53.970Z,99.99
2019-04-19T07:48:47.112Z,99.99
2019-04-19T07:49:57.495Z,99.99
2019-04-19T07:50:55.764Z,99.99
2019-04-19T07:51:56.524Z,99.99
2019-04-19T07:52:53.762Z,99.99
2019-04-19T07:53:49.270Z,99.99
2019-04-19T07:54:53.521Z,99.99
2019-04-19T07:56:00.752Z,99.99
2019-04-19T07:57:00.500Z,99.99
2019-04-19T07:58:27.784Z,99.99
2019-04-19T08:00:15.066Z,99.99
2019-04-19T08:01:37.125Z,99.99
2019-04-19T08:02:26.641Z,99.99
2019-04-19T08:03:27.941Z,99.99
2019-04-19T08:06:13.613Z,99.99
2019-04-19T08:08:18.464Z,99.99
2019-04-19T08:09:13.780Z,99.99
2019-04-19T08:10:10.800Z,99.99
2019-04-19T08:11:21.905Z,99.99
2019-04-19T08:12:13.277Z,99.99
2019-04-19T08:14:09.788Z,99.99
2019-04-19T08:15:11.859Z,99.99
2019-04-19T08:16:16.794Z,99.99
2019-04-19T08:18:13.195Z,99.99
2019-04-19T08:27:52.515Z,99.99
2019-04-19T08:28:56.004Z,99.99
2019-04-19T08:29:51.309Z,99.99
2019-04-19T08:30:48.788Z,99.99
2019-04-19T08:31:44.383Z,99.99
2019-04-19T08:32:45.040Z,99.99
2019-04-19T08:33:44.688Z,99.99
2019-04-19T08:34:51.960Z,99.99
2019-04-19T08:35:49.144Z,99.99
2019-04-19T08:36:51.690Z,99.99
2019-04-19T08:37:46.176Z,99.99
2019-04-19T08:39:03.186Z,99.99
2019-04-19T08:39:58.700Z,99.99
2019-04-19T08:40:59.315Z,99.99
2019-04-19T08:42:07.462Z,99.99
2019-04-19T08:43:01.296Z,99.99
2019-04-19T08:44:03.740Z,99.99
2019-04-19T08:44:54.629Z,99.99
2019-04-19T08:45:44.557Z,99.99
2019-04-19T08:46:43.558Z,99.99
2019-04-19T08:47:51.566Z,99.99
2019-04-19T08:48:50.334Z,99.99
2019-04-19T08:49:45.238Z,99.99
2019-04-19T08:50:48.633Z,99.99
2019-04-19T08:51:43.965Z,99.99
2019-04-19T08:52:51.220Z,99.99
2019-04-19T08:53:57.230Z,99.99
2019-04-19T08:55:07.645Z,99.99
2019-04-19T08:56:01.292Z,99.99
2019-04-19T08:56:53.663Z,99.99
2019-04-19T08:57:51.181Z,99.99
2019-04-19T08:58:54.347Z,99.99
2019-04-19T09:00:08.154Z,99.99
2019-04-19T09:01:09.823Z,99.99
2019-04-19T09:02:00.964Z,99.99
2019-04-19T09:02:54.178Z,99.99
2019-04-19T09:04:06.628Z,99.99
2019-04-19T09:05:00.399Z,99.99
2019-04-19T09:06:32.736Z,99.99
2019-04-19T09:07:59.762Z,99.99
2019-04-19T09:08:57.897Z,99.99
2019-04-19T09:10:19.483Z,99.99
2019-04-19T09:11:01.446Z,99.99
2019-04-19T09:12:03.925Z,99.99
2019-04-19T09:13:12.500Z,99.99
2019-04-19T09:14:06.983Z,99.99
2019-04-19T09:15:01.750Z,99.99
2019-04-19T09:16:00.593Z,99.99
2019-04-19T09:17:08.634Z,99.99
2019-04-19T09:19:28.337Z,99.99
2019-04-19T09:21:02.963Z,99.99
2019-04-19T09:21:58.163Z,99.99
2019-04-19T09:22:55.067Z,99.99
2019-04-19T09:23:48.508Z,99.99
2019-04-19T09:24:52.665Z,99.99
2019-04-19T09:25:55.140Z,99.99
2019-04-19T09:26:58.978Z,99.99
2019-04-19T09:28:00.347Z,99.99
2019-04-19T09:29:58.942Z,99.99
2019-04-19T09:30:58.293Z,99.99
2019-04-19T09:31:51.889Z,99.99
2019-04-19T09:32:42.290Z,99.99
2019-04-19T09:33:44.060Z,99.99
2019-04-19T09:34:51.952Z,99.99
2019-04-19T09:35:50.814Z,99.99
2019-04-19T09:36:49.143Z,99.99
2019-04-19T09:37:53.831Z,99.99
2019-04-19T09:38:55.484Z,99.99
2019-04-19T09:39:50.139Z,99.99
2019-04-19T09:40:48.658Z,99.99
2019-04-19T09:41:46.609Z,99.99
2019-04-19T09:42:50.774Z,99.99
2019-04-19T09:43:52.551Z,99.99
2019-04-19T09:44:47.980Z,99.99
2019-04-19T09:45:40.752Z,99.99
2019-04-19T09:46:40.715Z,99.99
2019-04-19T09:47:41.924Z,99.99
2019-04-19T09:48:56.608Z,99.99
2019-04-19T09:49:57.229Z,99.99
2019-04-19T09:50:55.108Z,99.99
2019-04-19T09:51:55.361Z,99.99
2019-04-19T09:52:59.916Z,99.99
2019-04-19T09:54:02.607Z,99.99
2019-04-19T09:55:03.641Z,99.99
2019-04-19T09:56:02.250Z,99.99
2019-04-19T09:56:53.654Z,99.99
2019-04-19T09:58:04.659Z,99.99
2019-04-19T09:58:53.931Z,99.99
2019-04-19T09:59:43.043Z,99.99
2019-04-19T10:00:40.944Z,99.99
2019-04-19T10:01:45.700Z,99.99
2019-04-19T10:02:48.292Z,99.99
2019-04-19T10:03:46.952Z,98.82
2019-04-19T10:04:40.037Z,98.05
2019-04-19T10:05:41.071Z,97.67
2019-04-19T10:06:40.665Z,97.24
2019-04-19T10:07:40.814Z,96.85
2019-04-19T10:08:40.121Z,95.98
2019-04-19T10:09:40.727Z,95.50
2019-04-19T10:10:40.762Z,95.21
2019-04-19T10:11:39.500Z,94.73
2019-04-19T10:12:39.830Z,94.64
2019-04-19T10:13:39.878Z,95.50
2019-04-19T10:14:39.667Z,94.97
2019-04-19T10:15:40.442Z,94.35
2019-04-19T10:16:40.091Z,94.25
2019-04-19T10:17:40.545Z,94.06
2019-04-19T10:18:49.163Z,94.64
2019-04-19T10:19:39.156Z,95.31
2019-04-19T10:20:39.110Z,94.92
2019-04-19T10:21:40.437Z,95.89
2019-04-19T10:22:39.114Z,96.08
2019-04-19T10:23:38.958Z,96.75
2019-04-19T10:24:39.122Z,97.14
2019-04-19T10:25:45.875Z,96.94
2019-04-19T10:26:38.797Z,95.50
2019-04-19T10:27:39.663Z,93.19
2019-04-19T10:28:39.981Z,87.88
2019-04-19T10:29:41.804Z,83.37
2019-04-19T10:30:38.649Z,76.95
2019-04-19T10:31:39.727Z,70.99
2019-04-19T10:32:38.689Z,65.98
2019-04-19T10:33:46.596Z,62.93
2019-04-19T10:34:38.633Z,59.62
2019-04-19T10:35:38.383Z,56.29
2019-04-19T10:36:38.586Z,54.00
2019-04-19T10:37:39.801Z,51.73
2019-04-19T10:38:38.246Z,48.85
2019-04-19T10:39:39.454Z,46.94
2019-04-19T10:40:38.168Z,46.25
2019-04-19T10:41:38.456Z,46.34
2019-04-19T10:42:38.967Z,45.59
2019-04-19T10:43:39.067Z,45.76
2019-04-19T10:44:38.228Z,45.66
2019-04-19T10:45:38.300Z,45.66
2019-04-19T10:46:38.601Z,44.90
2019-04-19T10:47:37.970Z,43.86
2019-04-19T10:48:38.894Z,42.32
2019-04-19T10:49:44.298Z,41.35
2019-04-19T10:50:43.656Z,41.24
2019-04-19T10:51:37.705Z,42.39
2019-04-19T10:52:37.662Z,42.58
2019-04-19T10:53:38.684Z,41.45
2019-04-19T10:54:38.275Z,39.92
2019-04-19T10:55:38.236Z,38.95
2019-04-19T10:56:38.493Z,39.34
2019-04-19T10:57:37.446Z,38.38
2019-04-19T10:58:38.632Z,38.07
2019-04-19T10:59:38.459Z,38.54
2019-04-19T11:00:37.587Z,38.92
2019-04-19T11:01:37.271Z,39.40
2019-04-19T11:02:38.413Z,38.64
2019-04-19T11:03:37.211Z,39.48
2019-04-19T11:04:38.549Z,40.08
2019-04-19T11:05:37.131Z,39.48
2019-04-19T11:06:37.592Z,38.76
2019-04-19T11:07:39.823Z,37.69
2019-04-19T11:08:38.303Z,37.01
2019-04-19T11:09:37.547Z,38.72
2019-04-19T11:10:37.891Z,40.92
2019-04-19T11:11:37.248Z,43.07
2019-04-19T11:12:36.832Z,46.11
2019-04-19T11:13:38.024Z,49.07
2019-04-19T11:14:36.777Z,51.48
2019-04-19T11:15:36.747Z,53.19
2019-04-19T11:16:37.548Z,55.05
2019-04-19T11:17:37.961Z,57.53
2019-04-19T11:18:37.349Z,59.51
2019-04-19T11:19:49.835Z,61.04
2019-04-19T11:20:45.002Z,62.95
2019-04-19T11:21:36.485Z,64.37
2019-04-19T11:22:37.672Z,65.50
2019-04-19T11:23:37.614Z,66.08
2019-04-19T11:24:36.360Z,66.37
2019-04-19T11:25:36.314Z,66.27
2019-04-19T11:26:36.963Z,65.72
2019-04-19T11:27:37.334Z,66.17
2019-04-19T11:28:36.688Z,67.24
2019-04-19T11:29:36.557Z,66.66
2019-04-19T11:30:37.233Z,67.05
2019-04-19T11:31:36.161Z,66.56
2019-04-19T11:32:36.011Z,66.56
2019-04-19T11:33:37.070Z,67.24
2019-04-19T11:34:35.946Z,67.14
2019-04-19T11:35:37.142Z,67.82
2019-04-19T11:36:35.860Z,67.63
2019-04-19T11:37:37.015Z,67.21
2019-04-19T11:38:36.742Z,68.15
2019-04-19T11:39:36.886Z,69.01
2019-04-19T11:40:35.678Z,69.69
2019-04-19T11:41:36.842Z,69.31
2019-04-19T11:42:35.613Z,68.88
2019-04-19T11:43:35.740Z,69.08
2019-04-19T11:44:35.949Z,69.56
2019-04-19T11:45:35.810Z,69.85
2019-04-19T11:46:36.046Z,70.04
2019-04-19T11:47:35.405Z,69.27
2019-04-19T11:48:35.367Z,69.11
2019-04-19T11:49:38.710Z,68.21
2019-04-19T11:50:35.888Z,67.08
2019-04-19T11:51:36.111Z,67.08
2019-04-19T11:52:35.640Z,66.40
2019-04-19T11:53:36.416Z,66.50
2019-04-19T11:54:35.066Z,66.60
2019-04-19T11:55:36.216Z,66.69
2019-04-19T11:56:45.299Z,66.88
2019-04-19T11:57:34.922Z,67.18
2019-04-19T11:58:35.842Z,67.46
2019-04-19T11:59:43.361Z,67.85
2019-04-19T12:00:35.916Z,67.95
2019-04-19T12:01:34.779Z,68.53
2019-04-19T12:02:35.832Z,68.91
2019-04-19T12:03:37.497Z,69.11
2019-04-19T12:04:34.645Z,68.11
2019-04-19T12:05:35.841Z,67.91
2019-04-19T12:06:34.543Z,67.98
2019-04-19T12:07:34.793Z,68.66
2019-04-19T12:08:34.447Z,69.14
2019-04-19T12:09:34.525Z,68.43
2019-04-19T12:10:35.950Z,69.01
2019-04-19T12:11:34.336Z,69.01
2019-04-19T12:12:35.079Z,68.04
2019-04-19T12:13:36.443Z,67.21
2019-04-19T12:14:34.463Z,67.21
2019-04-19T12:15:34.331Z,66.95
2019-04-19T12:16:35.044Z,67.05
2019-04-19T12:17:35.385Z,66.66
2019-04-19T12:18:36.892Z,65.88
2019-04-19T12:19:39.773Z,65.59
2019-04-19T12:20:35.035Z,65.63
2019-04-19T12:21:33.882Z,64.95
2019-04-19T12:22:33.813Z,65.72
2019-04-19T12:23:34.776Z,65.63
2019-04-19T12:24:34.857Z,65.43
2019-04-19T12:25:33.703Z,65.92
2019-04-19T12:26:33.656Z,65.63
2019-04-19T12:27:33.905Z,64.50
2019-04-19T12:28:33.579Z,63.62
2019-04-19T12:29:38.726Z,63.43
2019-04-19T12:30:33.673Z,63.98
2019-04-19T12:31:33.705Z,64.66
2019-04-19T12:32:33.369Z,64.66
2019-04-19T12:33:33.434Z,64.30
2019-04-19T12:34:33.292Z,62.75
2019-04-19T12:35:33.249Z,62.95
2019-04-19T12:36:33.212Z,62.66
2019-04-19T12:37:33.237Z,62.69
2019-04-19T12:38:33.320Z,62.10
2019-04-19T12:39:33.092Z,62.30
2019-04-19T12:40:33.864Z,62.75
2019-04-19T12:41:34.101Z,63.72
2019-04-19T12:42:33.905Z,63.82
2019-04-19T12:43:33.996Z,64.50
2019-04-19T12:44:33.261Z,65.37
2019-04-19T12:45:33.559Z,64.89
2019-04-19T12:46:32.899Z,63.92
2019-04-19T12:47:33.167Z,64.20
2019-04-19T12:48:32.680Z,65.24
2019-04-19T12:49:33.170Z,65.88
2019-04-19T12:50:35.570Z,66.27
2019-04-19T12:51:32.547Z,66.75
2019-04-19T12:52:33.576Z,66.37
2019-04-19T12:53:32.825Z,66.27
2019-04-19T12:54:32.393Z,65.34
2019-04-19T12:55:32.433Z,65.05
2019-04-19T12:56:32.325Z,65.14
2019-04-19T12:57:32.292Z,64.95
2019-04-19T12:58:32.353Z,64.17
2019-04-19T12:59:32.183Z,64.07
2019-04-19T13:00:32.142Z,63.11
2019-04-19T13:01:32.196Z,64.11
2019-04-19T13:02:32.070Z,64.30
2019-04-19T13:03:32.015Z,63.34
2019-04-19T13:04:32.744Z,63.72
2019-04-19T13:05:33.388Z,62.75
2019-04-19T13:06:31.862Z,62.75
2019-04-19T13:07:33.096Z,63.04
2019-04-19T13:08:32.811Z,62.46
2019-04-19T13:09:32.930Z,62.37
2019-04-19T13:10:31.695Z,62.66
2019-04-19T13:11:32.805Z,62.85
2019-04-19T13:12:32.859Z,62.17
2019-04-19T13:13:31.956Z,62.07
2019-04-19T13:14:31.541Z,61.30
2019-04-19T13:15:32.238Z,60.14
2019-04-19T13:16:32.458Z,60.72
2019-04-19T13:17:31.375Z,60.11
2019-04-19T13:18:32.038Z,58.47
2019-04-19T13:19:31.372Z,58.37
2019-04-19T13:20:34.137Z,58.30
2019-04-19T13:21:32.420Z,59.17
2019-04-19T13:22:32.346Z,59.07